Time;durP1;ratioP1;P1;durP2;ratioP2;P2;SDS_P1;SDS_P2;PMS_P1;PMS_P2;Temp;Humidity;BMP_temperature;BMP_pressure;BME280_temperature;BME280_humidity;BME280_pressure;Samples;Min_cycle;Max_cycle;Signal;HPM_P1;HPM_P2
2020/12/13 00:00:33;;;;;;;44.18;16.70;;;;;;;-2.80;100.00;99323.69;1826215;77;22059;-76
2020/12/13 00:03:01;;;;;;;46.80;19.23;;;;;;;-2.78;100.00;99326.14;1826431;78;20989;-79
2020/12/13 00:05:29;;;;;;;41.37;15.98;;;;;;;-2.79;100.00;99325.32;1826427;78;20922;-81
2020/12/13 00:07:57;;;;;;;46.63;18.10;;;;;;;-2.79;100.00;99327.19;1826356;78;21503;-82
2020/12/13 00:10:24;;;;;;;47.53;18.80;;;;;;;-2.79;100.00;99322.64;1826252;78;20982;-82
2020/12/13 00:12:52;;;;;;;37.28;14.98;;;;;;;-2.76;100.00;99326.20;1826398;78;23591;-81
2020/12/13 00:15:20;;;;;;;44.13;17.32;;;;;;;-2.71;100.00;99324.16;1819769;78;21190;-81
2020/12/13 00:17:47;;;;;;;45.12;17.00;;;;;;;-2.69;100.00;99323.39;1793373;78;21499;-85
2020/12/13 00:20:15;;;;;;;44.13;16.82;;;;;;;-2.69;100.00;99325.55;1792997;80;21836;-75
2020/12/13 00:22:43;;;;;;;44.20;16.23;;;;;;;-2.67;100.00;99328.01;1793305;80;20953;-81
2020/12/13 00:25:11;;;;;;;38.63;16.70;;;;;;;-2.65;100.00;99325.91;1793322;80;21384;-82
2020/12/13 00:27:40;;;;;;;40.60;16.60;;;;;;;-2.66;100.00;99318.89;1793422;80;21068;-81
2020/12/13 00:30:07;;;;;;;41.63;17.67;;;;;;;-2.67;100.00;99319.42;1793185;80;20993;-83
2020/12/13 00:32:35;;;;;;;46.15;15.23;;;;;;;-2.67;100.00;99318.60;1793279;80;21475;-84
2020/12/13 00:35:05;;;;;;;32.50;13.60;;;;;;;-2.68;100.00;99321.00;1793323;80;21091;-84
2020/12/13 00:37:33;;;;;;;41.88;14.85;;;;;;;-2.70;100.00;99315.86;1793264;80;21252;-83
2020/12/13 00:40:00;;;;;;;36.65;14.53;;;;;;;-2.67;100.00;99316.73;1793121;80;21610;-80
2020/12/13 00:42:28;;;;;;;37.03;15.00;;;;;;;-2.65;100.00;99320.53;1792351;80;21005;-81
2020/12/13 00:44:56;;;;;;;37.35;15.60;;;;;;;-2.66;100.00;99326.95;1739396;82;21080;-86
2020/12/13 00:47:24;;;;;;;43.23;17.37;;;;;;;-2.66;100.00;99322.39;1739374;82;20953;-85
2020/12/13 00:49:52;;;;;;;37.53;15.13;;;;;;;-2.61;100.00;99326.25;1739170;82;22094;-79
2020/12/13 00:52:19;;;;;;;42.85;16.55;;;;;;;-2.60;100.00;99326.54;1739096;82;21211;-77
2020/12/13 00:54:47;;;;;;;41.58;16.27;;;;;;;-2.61;100.00;99324.91;1739278;82;20901;-79
2020/12/13 00:57:15;;;;;;;34.60;16.42;;;;;;;-2.63;100.00;99318.42;1739279;82;21079;-80
2020/12/13 00:59:42;;;;;;;32.35;13.98;;;;;;;-2.64;100.00;99307.37;1710221;82;21131;-80
2020/12/13 01:02:10;;;;;;;40.35;15.35;;;;;;;-2.66;100.00;99310.30;1739204;82;21350;-82
2020/12/13 01:04:38;;;;;;;31.62;13.50;;;;;;;-2.67;100.00;99303.82;1739255;82;21162;-83
2020/12/13 01:07:06;;;;;;;38.50;15.10;;;;;;;-2.66;100.00;99303.59;1739306;82;20946;-77
2020/12/13 01:09:34;;;;;;;37.80;14.60;;;;;;;-2.64;100.00;99303.34;1739282;82;20992;-81
2020/12/13 01:12:02;;;;;;;37.60;13.98;;;;;;;-2.66;100.00;99303.59;1739253;82;21139;-78
2020/12/13 01:14:30;;;;;;;38.38;15.50;;;;;;;-2.66;100.00;99300.90;1739524;82;21376;-79
2020/12/13 01:16:57;;;;;;;38.33;16.20;;;;;;;-2.63;100.00;99300.14;1782397;79;21476;-78
2020/12/13 01:19:25;;;;;;;35.92;15.25;;;;;;;-2.63;100.00;99298.80;1798192;79;20892;-82
2020/12/13 01:21:53;;;;;;;36.65;13.98;;;;;;;-2.65;100.00;99292.31;1798269;79;21103;-79
2020/12/13 01:24:21;;;;;;;38.75;15.18;;;;;;;-2.62;100.00;99295.88;1798369;79;21139;-80
2020/12/13 01:26:49;;;;;;;35.35;14.33;;;;;;;-2.60;100.00;99300.48;1798286;79;21341;-80
2020/12/13 01:29:16;;;;;;;37.30;15.13;;;;;;;-2.59;100.00;99290.55;1798329;79;21062;-81
2020/12/13 01:31:45;;;;;;;33.53;14.68;;;;;;;-2.59;100.00;99288.68;1798196;79;21006;-83
2020/12/13 01:34:13;;;;;;;32.23;13.53;;;;;;;-2.58;100.00;99288.97;1798275;79;21005;-84
2020/12/13 01:36:41;;;;;;;35.68;14.73;;;;;;;-2.58;100.00;99286.28;1798275;79;21041;-84
2020/12/13 01:39:08;;;;;;;36.45;15.55;;;;;;;-2.58;100.00;99288.97;1799439;79;21211;-82
2020/12/13 01:41:36;;;;;;;36.65;15.98;;;;;;;-2.57;100.00;99292.48;1798647;79;21073;-79
2020/12/13 01:44:05;;;;;;;32.33;15.15;;;;;;;-2.55;100.00;99288.50;1798232;79;21005;-81
2020/12/13 01:46:33;;;;;;;35.20;13.93;;;;;;;-2.53;100.00;99288.27;1798252;79;20907;-81
2020/12/13 01:54:20;;;;;;;28.27;13.32;;;;;;;-2.50;100.00;99280.55;1841767;78;20910;-80
2020/12/13 01:56:51;;;;;;;33.15;14.18;;;;;;;-2.48;100.00;99282.47;1841642;78;21402;-81
2020/12/13 01:59:20;;;;;;;28.95;14.20;;;;;;;-2.44;100.00;99284.16;1841781;78;21529;-81
2020/12/13 02:01:56;;;;;;;34.90;13.62;;;;;;;-2.39;100.00;99288.29;1841804;78;20957;-81
2020/12/13 02:04:24;;;;;;;33.65;13.95;;;;;;;-2.39;100.00;99280.22;1841230;77;20983;-78
2020/12/13 02:06:54;;;;;;;25.92;12.50;;;;;;;-2.38;100.00;99282.67;1841699;78;21466;-79
2020/12/13 02:09:23;;;;;;;30.15;14.53;;;;;;;-2.36;100.00;99281.91;1812066;78;21626;-78
2020/12/13 02:11:53;;;;;;;31.65;13.65;;;;;;;-2.30;100.00;99279.30;1841666;78;20889;-79
2020/12/13 02:14:21;;;;;;;27.77;13.18;;;;;;;-2.27;100.00;99281.50;1841687;78;20909;-79
2020/12/13 02:16:50;;;;;;;27.87;13.80;;;;;;;-2.25;100.00;99276.70;1841671;78;21079;-78
2020/12/13 02:19:20;;;;;;;28.95;12.25;;;;;;;-2.19;100.00;99270.37;1841688;78;21090;-80
2020/12/13 02:21:51;;;;;;;23.90;12.28;;;;;;;-2.16;100.00;99272.59;1841628;78;21356;-79
2020/12/13 02:24:19;;;;;;;26.33;12.67;;;;;;;-2.12;100.00;99269.17;1841917;78;20964;-79
2020/12/13 02:26:47;;;;;;;31.23;13.30;;;;;;;-2.07;100.00;99280.03;1841652;78;21099;-81
2020/12/13 02:29:15;;;;;;;31.12;12.68;;;;;;;-2.02;100.00;99276.63;1841616;78;21012;-79
2020/12/13 02:31:43;;;;;;;28.52;13.50;;;;;;;-2.00;100.00;99274.52;1841113;77;20900;-79
2020/12/13 02:34:11;;;;;;;27.70;12.82;;;;;;;-1.98;100.00;99279.66;1808565;79;23559;-79
2020/12/13 02:36:41;;;;;;;31.73;14.43;;;;;;;-1.94;100.00;99273.55;1808506;78;20940;-79
2020/12/13 02:39:10;;;;;;;30.68;14.43;;;;;;;-1.89;100.00;99272.83;1808600;78;20983;-79
2020/12/13 02:41:37;;;;;;;29.67;14.85;;;;;;;-1.86;100.00;99283.11;1808545;79;21138;-80
2020/12/13 02:44:05;;;;;;;25.20;12.88;;;;;;;-1.84;100.00;99288.53;1808679;79;21122;-80
2020/12/13 02:46:33;;;;;;;28.40;13.38;;;;;;;-1.79;100.00;99295.89;1808584;78;21195;-80
2020/12/13 02:49:01;;;;;;;25.72;12.73;;;;;;;-1.78;100.00;99298.87;1808558;79;21000;-80
2020/12/13 02:51:28;;;;;;;26.12;12.78;;;;;;;-1.75;100.00;99295.69;1808384;79;21564;-79
2020/12/13 02:53:56;;;;;;;27.27;12.65;;;;;;;-1.75;100.00;99284.41;1808523;79;21011;-79
2020/12/13 02:56:23;;;;;;;25.02;12.13;;;;;;;-1.75;100.00;99272.81;1808636;79;20912;-80
2020/12/13 02:58:52;;;;;;;25.02;12.37;;;;;;;-1.74;100.00;99275.80;1808691;79;22194;-81
2020/12/13 03:01:20;;;;;;;24.77;11.95;;;;;;;-1.72;100.00;99274.47;1808331;79;20940;-80
2020/12/13 03:03:48;;;;;;;27.52;11.18;;;;;;;-1.70;100.00;99284.46;1808121;79;21514;-82
2020/12/13 03:06:16;;;;;;;24.60;11.97;;;;;;;-1.68;100.00;99286.38;1807939;79;21012;-82
2020/12/13 03:08:44;;;;;;;23.38;11.70;;;;;;;-1.68;100.00;99281.53;1808003;79;20908;-82
2020/12/13 03:11:12;;;;;;;24.70;11.12;;;;;;;-1.67;100.00;99285.85;1808079;79;22471;-80
2020/12/13 03:13:39;;;;;;;21.27;10.75;;;;;;;-1.67;100.00;99288.55;1807914;79;20896;-82
2020/12/13 03:16:07;;;;;;;22.22;10.88;;;;;;;-1.67;100.00;99283.16;1807990;78;21536;-77
2020/12/13 03:18:35;;;;;;;25.52;12.45;;;;;;;-1.68;100.00;99285.03;1807941;79;21646;-77
2020/12/13 03:21:02;;;;;;;25.10;12.15;;;;;;;-1.65;100.00;99289.12;1807994;79;20924;-82
2020/12/13 03:23:30;;;;;;;24.47;12.45;;;;;;;-1.64;100.00;99289.41;1807982;79;21479;-81
2020/12/13 03:25:57;;;;;;;18.67;9.58;;;;;;;-1.63;100.00;99300.45;1807948;79;21003;-81
2020/12/13 03:28:26;;;;;;;23.80;11.73;;;;;;;-1.60;100.00;99301.84;1807975;79;20976;-82
2020/12/13 03:30:54;;;;;;;22.98;11.33;;;;;;;-1.58;100.00;99300.55;1807956;79;20889;-82
2020/12/13 03:33:22;;;;;;;22.52;11.03;;;;;;;-1.58;100.00;99296.52;1807992;78;21099;-81
2020/12/13 03:35:50;;;;;;;24.37;11.53;;;;;;;-1.59;100.00;99289.50;1807989;79;21464;-80
2020/12/13 03:38:18;;;;;;;18.75;9.80;;;;;;;-1.54;100.00;99285.55;1807915;79;20972;-76
2020/12/13 03:40:46;;;;;;;20.30;10.93;;;;;;;-1.50;100.00;99273.77;1807926;79;21003;-75
2020/12/13 03:43:14;;;;;;;22.82;11.55;;;;;;;-1.50;100.00;99277.27;1778748;79;20932;-75
2020/12/13 03:45:41;;;;;;;19.87;10.25;;;;;;;-1.49;100.00;99278.91;1807960;79;20925;-77
2020/12/13 03:48:09;;;;;;;18.62;10.25;;;;;;;-1.46;100.00;99283.80;1807977;79;21192;-77
2020/12/13 03:50:39;;;;;;;22.73;10.20;;;;;;;-1.43;100.00;99278.45;1807725;79;21007;-79
2020/12/13 03:53:12;;;;;;;20.05;10.13;;;;;;;-1.42;100.00;99278.22;1807985;79;20984;-78
2020/12/13 03:55:40;;;;;;;20.35;10.72;;;;;;;-1.39;100.00;99283.11;1808102;79;21047;-80
2020/12/13 03:58:10;;;;;;;21.82;11.12;;;;;;;-1.38;100.00;99285.27;1807717;79;20936;-85
2020/12/13 04:00:38;;;;;;;20.08;9.93;;;;;;;-1.37;100.00;99281.52;1807972;79;21553;-81
2020/12/13 04:03:05;;;;;;;21.10;10.98;;;;;;;-1.36;100.00;99277.23;1807880;79;21020;-75
2020/12/13 04:05:33;;;;;;;21.10;10.68;;;;;;;-1.32;100.00;99277.56;1807959;79;20885;-74
2020/12/13 04:08:01;;;;;;;22.67;10.28;;;;;;;-1.31;100.00;99273.00;1807941;78;21071;-75
2020/12/13 04:10:29;;;;;;;19.82;9.50;;;;;;;-1.32;100.00;99272.70;1807936;79;20991;-75
2020/12/13 04:12:57;;;;;;;23.57;11.60;;;;;;;-1.31;100.00;99274.34;1807918;79;21515;-75
2020/12/13 04:15:24;;;;;;;27.82;12.63;;;;;;;-1.31;100.00;99272.47;1807905;79;20932;-80
2020/12/13 04:17:53;;;;;;;17.50;9.63;;;;;;;-1.31;100.00;99275.16;1807162;79;21197;-75
2020/12/13 04:20:21;;;;;;;21.97;11.22;;;;;;;-1.31;100.00;99281.89;1807258;79;20987;-83
2020/12/13 04:22:49;;;;;;;20.97;11.33;;;;;;;-1.29;100.00;99280.30;1807770;79;20960;-75
2020/12/13 04:25:18;;;;;;;24.95;10.60;;;;;;;-1.30;100.00;99287.56;1807733;79;21181;-79
2020/12/13 04:27:46;;;;;;;20.20;10.58;;;;;;;-1.30;100.00;99292.13;1807649;79;21014;-83
2020/12/13 04:30:14;;;;;;;24.82;10.25;;;;;;;-1.32;100.00;99288.87;1807586;79;20940;-75
2020/12/13 04:32:42;;;;;;;22.55;10.85;;;;;;;-1.35;100.00;99286.13;1807684;78;20885;-78
2020/12/13 04:35:11;;;;;;;22.20;11.15;;;;;;;-1.34;100.00;99289.93;1807203;78;21119;-77
2020/12/13 04:37:40;;;;;;;25.57;11.97;;;;;;;-1.32;100.00;99292.91;1805738;79;21417;-83
2020/12/13 04:40:08;;;;;;;25.20;10.95;;;;;;;-1.31;100.00;99286.46;1804318;79;21566;-81
2020/12/13 04:42:37;;;;;;;24.57;11.28;;;;;;;-1.31;100.00;99287.81;1805951;79;21146;-83
2020/12/13 04:45:08;;;;;;;20.27;10.60;;;;;;;-1.31;100.00;99289.16;1806000;79;21182;-84
2020/12/13 04:47:42;;;;;;;21.85;11.05;;;;;;;-1.27;100.00;99290.30;1806109;78;20984;-77
2020/12/13 04:50:09;;;;;;;31.45;15.23;;;;;;;-1.25;100.00;99292.22;1793021;79;22199;-76
2020/12/13 04:52:37;;;;;;;39.42;19.27;;;;;;;-1.24;100.00;99289.81;1779628;80;21149;-76
2020/12/13 04:55:05;;;;;;;35.85;16.00;;;;;;;-1.23;100.00;99287.41;1795370;79;21582;-81
2020/12/13 04:57:33;;;;;;;28.20;14.90;;;;;;;-1.22;100.00;99281.77;1791549;78;21094;-84
2020/12/13 05:00:02;;;;;;;29.15;13.90;;;;;;;-1.20;100.00;99284.22;1796558;79;21011;-81
2020/12/13 05:02:29;;;;;;;31.30;15.93;;;;;;;-1.19;100.00;99281.81;1796257;79;21201;-83
2020/12/13 05:04:57;;;;;;;42.58;21.50;;;;;;;-1.17;100.00;99278.34;1796368;79;21002;-78
2020/12/13 05:07:24;;;;;;;41.23;20.40;;;;;;;-1.13;100.00;99274.06;1796650;79;21038;-78
2020/12/13 05:09:52;;;;;;;37.53;18.82;;;;;;;-1.11;100.00;99274.11;1797059;79;21015;-76
2020/12/13 05:12:24;;;;;;;31.87;14.93;;;;;;;-1.12;100.00;99271.66;1797126;79;20936;-83
2020/12/13 05:14:52;;;;;;;28.90;13.15;;;;;;;-1.10;100.00;99268.19;1797363;79;21587;-79
2020/12/13 05:17:20;;;;;;;34.67;13.35;;;;;;;-1.07;100.00;99265.00;1797161;79;20936;-80
2020/12/13 05:19:50;;;;;;;24.07;11.70;;;;;;;-1.04;100.00;99267.20;1796757;79;21054;-80
2020/12/13 05:22:21;;;;;;;32.67;14.38;;;;;;;-1.02;100.00;99267.23;1797016;78;21144;-76
2020/12/13 05:24:50;;;;;;;28.05;13.03;;;;;;;-1.01;100.00;99267.52;1797204;79;21093;-74
2020/12/13 05:27:22;;;;;;;25.05;11.22;;;;;;;-0.98;100.00;99266.74;1796446;79;21374;-76
2020/12/13 05:29:53;;;;;;;24.10;12.23;;;;;;;-0.95;100.00;99268.95;1765779;80;21161;-82
2020/12/13 05:32:23;;;;;;;25.72;12.25;;;;;;;-0.94;100.00;99266.00;1750667;80;21513;-78
2020/12/13 05:34:52;;;;;;;26.85;12.68;;;;;;;-0.89;100.00;99268.77;1795848;78;20943;-80
2020/12/13 05:37:19;;;;;;;27.95;13.95;;;;;;;-0.85;100.00;99271.79;1797182;79;21577;-78
2020/12/13 05:39:51;;;;;;;28.00;13.03;;;;;;;-0.85;100.00;99271.26;1797086;79;21367;-78
2020/12/13 05:42:32;;;;;;;30.65;14.93;;;;;;;-0.82;100.00;99271.30;1797133;79;20932;-82
2020/12/13 05:53:02;;;;;;;37.85;15.50;;;;;;;-0.70;100.00;99263.38;1780323;79;21192;-79
2020/12/13 05:55:30;;;;;;;33.02;15.03;;;;;;;-0.65;100.00;99263.17;1802249;79;21582;-89
2020/12/13 05:57:58;;;;;;;34.18;16.75;;;;;;;-0.63;100.00;99261.05;1802298;79;21115;-76
2020/12/13 06:00:28;;;;;;;30.35;14.75;;;;;;;-0.62;100.00;99261.33;1802173;79;21654;-82
2020/12/13 06:02:55;;;;;;;31.12;14.20;;;;;;;-0.60;100.00;99265.40;1802469;79;21036;-87
2020/12/13 06:05:24;;;;;;;32.10;14.73;;;;;;;-0.58;100.00;99261.11;1725416;79;21368;-84
2020/12/13 06:07:51;;;;;;;30.23;15.55;;;;;;;-0.58;100.00;99261.92;1802493;79;21076;-82
2020/12/13 06:10:24;;;;;;;32.63;15.95;;;;;;;-0.56;100.00;99262.45;1802086;79;21008;-89
2020/12/13 06:13:03;;;;;;;41.13;17.32;;;;;;;-0.55;100.00;99265.44;1802502;79;21453;-84
2020/12/13 06:15:32;;;;;;;40.00;18.92;;;;;;;-0.55;100.00;99259.23;1802478;79;21056;-87
2020/12/13 06:18:00;;;;;;;40.40;16.90;;;;;;;-0.55;100.00;99268.66;1802476;79;21215;-81
2020/12/13 06:20:28;;;;;;;40.48;16.65;;;;;;;-0.52;100.00;99263.59;1802494;79;20989;-87
2020/12/13 06:22:56;;;;;;;43.20;17.85;;;;;;;-0.48;100.00;99277.39;1802573;78;20985;-88
2020/12/13 06:25:24;;;;;;;46.30;19.77;;;;;;;-0.48;100.00;99279.55;1775849;79;20941;-85
2020/12/13 06:27:52;;;;;;;48.48;20.15;;;;;;;-0.50;100.00;99280.33;1802481;79;21048;-83
2020/12/13 06:30:20;;;;;;;43.50;19.05;;;;;;;-0.46;100.00;99275.26;1802438;79;21362;-77
2020/12/13 06:32:51;;;;;;;53.55;20.27;;;;;;;-0.47;100.00;99273.62;1802383;78;21120;-74
2020/12/13 06:35:19;;;;;;;49.42;22.10;;;;;;;-0.46;100.00;99272.56;1802478;79;20941;-74
2020/12/13 06:37:47;;;;;;;49.75;21.65;;;;;;;-0.46;100.00;99275.26;1802537;79;20997;-73
2020/12/13 06:40:21;;;;;;;51.25;21.15;;;;;;;-0.45;100.00;99286.33;1802629;79;21108;-74
2020/12/13 06:42:51;;;;;;;52.20;20.90;;;;;;;-0.45;100.00;99275.54;1802735;79;21360;-74
2020/12/13 06:45:18;;;;;;;43.40;18.90;;;;;;;-0.45;100.00;99278.23;1802840;79;20969;-77
2020/12/13 06:47:47;;;;;;;51.35;21.12;;;;;;;-0.43;100.00;99277.45;1802071;79;21573;-72
2020/12/13 06:50:24;;;;;;;52.58;21.90;;;;;;;-0.41;100.00;99280.19;1802552;79;21184;-73
2020/12/13 06:52:53;;;;;;;53.75;22.00;;;;;;;-0.42;100.00;99277.73;1800505;78;20937;-76
2020/12/13 06:55:33;;;;;;;47.67;21.82;;;;;;;-0.42;100.00;99281.78;1800043;79;21433;-75
2020/12/13 06:58:01;;;;;;;50.52;23.35;;;;;;;-0.38;100.00;99286.96;1800146;79;21056;-83
2020/12/13 07:00:29;;;;;;;48.35;21.35;;;;;;;-0.37;100.00;99291.28;1800068;78;20993;-76
2020/12/13 07:02:58;;;;;;;45.88;19.45;;;;;;;-0.37;100.00;99294.80;1748031;79;21156;-72
2020/12/13 07:05:53;;;;;;;56.65;22.22;;;;;;;-0.35;100.00;99299.95;1800084;79;20965;-77
2020/12/13 07:08:22;;;;;;;56.70;22.50;;;;;;;-0.32;100.00;99298.09;1800193;79;22226;-73
2020/12/13 07:10:52;;;;;;;52.43;21.35;;;;;;;-0.34;100.00;99297.00;1799986;79;20933;-73
2020/12/13 07:13:22;;;;;;;60.23;23.30;;;;;;;-0.35;100.00;99294.55;1799964;78;20997;-75
2020/12/13 07:18:48;;;;;;;58.30;23.40;;;;;;;-0.28;100.00;99293.02;1888730;76;22606;-71
2020/12/13 07:21:16;;;;;;;58.83;22.75;;;;;;;-0.32;100.00;99294.05;1775682;80;21462;-72
2020/12/13 07:23:44;;;;;;;57.67;24.37;;;;;;;-0.29;100.00;99293.55;1773815;81;21204;-73
2020/12/13 07:26:12;;;;;;;64.45;25.80;;;;;;;-0.27;100.00;99298.69;1774612;80;21014;-73
2020/12/13 07:28:39;;;;;;;64.45;25.10;;;;;;;-0.29;100.00;99292.20;1745063;81;21011;-73
2020/12/13 07:31:07;;;;;;;63.90;26.30;;;;;;;-0.28;100.00;99301.11;1774312;80;21062;-72
2020/12/13 07:33:35;;;;;;;63.78;24.23;;;;;;;-0.28;100.00;99301.92;1750207;81;20994;-73
2020/12/13 07:36:02;;;;;;;67.27;26.90;;;;;;;-0.29;100.00;99304.34;1746854;80;22179;-73
2020/12/13 07:38:30;;;;;;;71.17;27.07;;;;;;;-0.30;100.00;99300.55;1742636;82;21691;-72
2020/12/13 07:40:58;;;;;;;61.70;25.12;;;;;;;-0.31;100.00;99309.17;1775256;80;20927;-72
2020/12/13 07:43:26;;;;;;;68.92;27.07;;;;;;;-0.32;100.00;99314.81;1743328;82;21492;-72
2020/12/13 07:45:54;;;;;;;72.25;27.60;;;;;;;-0.33;100.00;99316.70;1775439;80;21121;-73
2020/12/13 07:48:22;;;;;;;70.42;27.45;;;;;;;-0.34;100.00;99310.48;1743321;82;21384;-74
2020/12/13 07:50:50;;;;;;;63.48;24.55;;;;;;;-0.35;100.00;99306.69;1775265;80;21427;-73
2020/12/13 07:53:24;;;;;;;70.50;24.85;;;;;;;-0.34;100.00;99309.13;1743327;82;20967;-72
2020/12/13 07:55:53;;;;;;;67.58;28.20;;;;;;;-0.33;100.00;99305.91;1777888;80;20981;-72
2020/12/13 07:58:21;;;;;;;61.73;24.57;;;;;;;-0.35;100.00;99305.34;1775422;80;20986;-72
2020/12/13 08:00:49;;;;;;;64.00;25.10;;;;;;;-0.33;100.00;99308.60;1743315;82;21212;-72
2020/12/13 08:03:16;;;;;;;70.97;25.32;;;;;;;-0.33;100.00;99308.60;1775249;80;21516;-72
2020/12/13 08:05:44;;;;;;;64.80;24.80;;;;;;;-0.33;100.00;99305.91;1743316;82;21617;-72
2020/12/13 08:08:12;;;;;;;64.85;25.75;;;;;;;-0.31;100.00;99304.30;1775319;80;20951;-73
2020/12/13 08:10:39;;;;;;;68.40;25.50;;;;;;;-0.27;100.00;99309.48;1743336;82;20967;-73
2020/12/13 08:13:07;;;;;;;66.97;26.40;;;;;;;-0.30;100.00;99309.45;1775369;80;21495;-72
2020/12/13 08:15:35;;;;;;;61.35;24.37;;;;;;;-0.32;100.00;99314.28;1743300;82;20947;-73
2020/12/13 08:18:10;;;;;;;64.65;25.68;;;;;;;-0.31;100.00;99315.09;1761381;80;21085;-73
2020/12/13 08:20:44;;;;;;;66.60;24.80;;;;;;;-0.30;100.00;99311.33;1722374;83;20930;-73
2020/12/13 08:23:11;;;;;;;66.35;23.87;;;;;;;-0.30;100.00;99309.45;1750803;82;21131;-73
2020/12/13 08:25:38;;;;;;;64.75;23.60;;;;;;;-0.31;100.00;99311.86;1750458;82;21204;-73
2020/12/13 08:28:07;;;;;;;71.95;26.23;;;;;;;-0.29;100.00;99312.97;1750273;82;21975;-72
2020/12/13 08:30:35;;;;;;;64.03;24.18;;;;;;;-0.30;100.00;99308.10;1749934;82;20997;-73
2020/12/13 08:33:05;;;;;;;77.47;28.35;;;;;;;-0.31;100.00;99311.05;1726512;82;20994;-72
2020/12/13 08:35:32;;;;;;;67.53;25.23;;;;;;;-0.33;100.00;99304.55;1703489;82;21148;-73
2020/12/13 08:38:01;;;;;;;63.70;24.50;;;;;;;-0.30;100.00;99309.45;1749894;81;22184;-73
2020/12/13 08:40:41;;;;;;;58.90;22.77;;;;;;;-0.29;100.00;99300.83;1749894;81;20970;-71
2020/12/13 08:43:10;;;;;;;60.08;24.23;;;;;;;-0.28;100.00;99300.58;1749957;82;20946;-73
2020/12/13 08:45:38;;;;;;;57.75;24.30;;;;;;;-0.26;100.00;99299.79;1749888;82;20951;-73
2020/12/13 08:48:07;;;;;;;58.65;23.62;;;;;;;-0.26;100.00;99293.58;1749747;81;20900;-73
2020/12/13 08:50:41;;;;;;;59.23;23.60;;;;;;;-0.28;100.00;99293.02;1749927;82;21221;-73
2020/12/13 08:53:22;;;;;;;59.13;22.98;;;;;;;-0.28;100.00;99284.39;1749865;82;20923;-71
2020/12/13 08:56:03;;;;;;;55.67;22.00;;;;;;;-0.25;100.00;99288.47;1779026;80;21171;-71
2020/12/13 08:58:47;;;;;;;54.33;19.90;;;;;;;-0.24;100.00;99294.96;1780768;80;21013;-71
2020/12/13 09:01:16;;;;;;;55.63;21.65;;;;;;;-0.26;100.00;99291.70;1759960;80;21044;-71
2020/12/13 09:03:44;;;;;;;52.08;21.50;;;;;;;-0.24;100.00;99287.40;1780785;80;22174;-71
2020/12/13 09:06:11;;;;;;;61.50;23.80;;;;;;;-0.23;100.00;99289.03;1780709;80;21017;-71
2020/12/13 09:08:39;;;;;;;58.95;22.60;;;;;;;-0.24;100.00;99288.22;1780781;80;20941;-71
2020/12/13 09:11:07;;;;;;;59.45;23.30;;;;;;;-0.23;100.00;99287.69;1780176;80;21766;-71
2020/12/13 09:13:36;;;;;;;63.80;25.32;;;;;;;-0.24;100.00;99286.87;1756906;80;20942;-71
2020/12/13 09:16:05;;;;;;;53.38;22.30;;;;;;;-0.23;100.00;99289.84;1780679;80;22095;-71
2020/12/13 09:18:33;;;;;;;56.53;22.70;;;;;;;-0.24;100.00;99288.22;1780596;80;20962;-72
2020/12/13 09:21:01;;;;;;;57.73;23.92;;;;;;;-0.24;100.00;99286.05;1780767;80;21144;-71
2020/12/13 09:23:28;;;;;;;56.70;21.73;;;;;;;-0.21;100.00;99278.27;1780784;80;21515;-73
2020/12/13 09:25:57;;;;;;;55.40;22.65;;;;;;;-0.18;100.00;99272.91;1780801;80;20879;-75
2020/12/13 09:28:24;;;;;;;56.68;23.35;;;;;;;-0.19;100.00;99273.44;1780680;80;21543;-73
2020/12/13 09:30:52;;;;;;;53.02;21.57;;;;;;;-0.16;100.00;99270.23;1780494;80;21135;-72
2020/12/13 09:33:20;;;;;;;59.98;22.95;;;;;;;-0.16;100.00;99274.28;1780697;80;21148;-73
2020/12/13 09:35:48;;;;;;;56.60;22.15;;;;;;;-0.16;100.00;99270.23;1780754;80;21516;-73
2020/12/13 09:38:15;;;;;;;47.53;19.55;;;;;;;-0.15;100.00;99272.41;1780715;80;20878;-75
2020/12/13 09:40:44;;;;;;;50.05;18.32;;;;;;;-0.12;100.00;99268.66;1780751;80;21562;-74
2020/12/13 09:43:11;;;;;;;45.52;19.42;;;;;;;-0.10;100.00;99271.92;1780664;80;21016;-73
2020/12/13 09:45:39;;;;;;;45.12;19.73;;;;;;;-0.10;100.00;99269.23;1780761;80;21056;-74
2020/12/13 09:48:07;;;;;;;43.60;19.05;;;;;;;-0.08;100.00;99267.63;1780236;80;21061;-76
2020/12/13 09:50:34;;;;;;;42.35;18.40;;;;;;;-0.05;100.00;99261.19;1772308;80;20938;-76
2020/12/13 09:53:01;;;;;;;46.45;19.77;;;;;;;-0.04;100.00;99265.52;1776372;80;22660;-77
2020/12/13 09:55:29;;;;;;;48.28;20.85;;;;;;;-0.04;100.00;99260.66;1749792;82;20918;-71
2020/12/13 09:57:57;;;;;;;40.45;18.98;;;;;;;-0.03;100.00;99255.01;1749785;82;20974;-72
2020/12/13 10:00:25;;;;;;;52.88;22.37;;;;;;;0.00;100.00;99253.69;1749824;81;20945;-69
2020/12/13 10:02:53;;;;;;;64.17;23.18;;;;;;;0.00;100.00;99247.72;1771644;80;20985;-73
2020/12/13 10:05:33;;;;;;;42.50;18.87;;;;;;;0.02;100.00;99241.25;1779990;80;21366;-74
2020/12/13 10:10:43;;;;;;;53.23;22.52;;;;;;;-0.01;100.00;99250.70;1780841;80;21500;-76
2020/12/13 10:13:11;;;;;;;59.60;24.15;;;;;;;-0.03;100.00;99252.31;1780805;80;21666;-73
2020/12/13 10:15:39;;;;;;;41.45;17.82;;;;;;;-0.01;100.00;99248.82;1780760;80;20882;-72
2020/12/13 10:18:06;;;;;;;43.30;18.25;;;;;;;0.02;100.00;99252.05;1780546;80;21485;-70
2020/12/13 10:20:42;;;;;;;45.78;22.37;;;;;;;0.04;100.00;99250.73;1780676;80;20969;-69
2020/12/13 10:23:10;;;;;;;42.38;19.42;;;;;;;0.04;100.00;99252.08;1780855;80;21107;-65
2020/12/13 10:25:45;;;;;;;39.67;16.93;;;;;;;0.04;100.00;99252.08;1780702;80;21048;-66
2020/12/13 10:28:13;;;;;;;38.17;16.27;;;;;;;0.06;100.00;99251.29;1780829;80;21532;-66
2020/12/13 10:30:42;;;;;;;77.97;22.02;;;;;;;0.05;100.00;99248.31;1753096;80;22300;-69
2020/12/13 10:33:10;;;;;;;48.78;22.25;;;;;;;0.06;100.00;99246.42;1747603;82;21968;-72
2020/12/13 10:35:40;;;;;;;49.00;21.68;;;;;;;0.08;100.00;99242.94;1747785;82;21056;-71
2020/12/13 10:38:08;;;;;;;45.05;19.77;;;;;;;0.04;100.00;99243.98;1747726;82;21010;-71
2020/12/13 10:40:38;;;;;;;40.88;16.82;;;;;;;0.04;100.00;99244.52;1758209;79;21041;-70
2020/12/13 10:43:06;;;;;;;37.35;16.70;;;;;;;0.01;100.00;99243.14;1686932;82;21381;-71
2020/12/13 10:45:34;;;;;;;32.05;16.20;;;;;;;-0.01;100.00;99247.47;1729667;83;21602;-72
2020/12/13 10:48:03;;;;;;;29.90;14.83;;;;;;;-0.03;100.00;99242.86;1729348;83;21188;-70
2020/12/13 10:50:37;;;;;;;33.63;15.88;;;;;;;-0.02;100.00;99243.14;1749490;81;21205;-69
2020/12/13 10:53:01;;;;;;;33.02;15.83;;;;;;;-0.05;100.00;99250.40;1729135;83;21203;-74
2020/12/13 10:55:29;;;;;;;27.02;13.80;;;;;;;-0.06;100.00;99243.38;1749468;82;21475;-71
2020/12/13 10:57:57;;;;;;;28.50;14.28;;;;;;;-0.03;100.00;99246.91;1729654;83;20974;-73
2020/12/13 11:00:26;;;;;;;26.30;13.25;;;;;;;-0.03;100.00;99244.22;1749416;81;20905;-69
2020/12/13 11:02:54;;;;;;;27.52;13.30;;;;;;;-0.03;100.00;99246.91;1729600;83;20977;-72
2020/12/13 11:05:22;;;;;;;28.02;14.10;;;;;;;-0.04;100.00;99241.23;1729705;83;21001;-77
2020/12/13 11:07:49;;;;;;;31.10;13.68;;;;;;;-0.03;100.00;99236.66;1749327;82;22642;-68
2020/12/13 11:10:17;;;;;;;30.25;15.48;;;;;;;-0.01;100.00;99244.77;1729629;83;21076;-68
2020/12/13 11:12:45;;;;;;;31.27;16.00;;;;;;;-0.03;100.00;99247.45;1749454;81;21512;-67
2020/12/13 11:15:14;;;;;;;31.27;14.98;;;;;;;-0.05;100.00;99246.88;1729585;83;21112;-71
2020/12/13 11:17:43;;;;;;;35.20;15.80;;;;;;;-0.05;100.00;99245.00;1750433;80;20985;-73
2020/12/13 11:20:11;;;;;;;72.32;36.48;;;;;;;-0.05;100.00;99247.70;1774632;80;21370;-74
2020/12/13 11:22:39;;;;;;;35.48;17.62;;;;;;;-0.06;100.00;99242.02;1748973;80;21486;-74
2020/12/13 11:25:07;;;;;;;30.70;16.30;;;;;;;-0.07;100.00;99232.83;1774285;80;21537;-73
2020/12/13 11:27:35;;;;;;;30.72;15.20;;;;;;;-0.06;100.00;99235.81;1774464;80;21553;-73
2020/12/13 11:30:09;;;;;;;29.37;13.58;;;;;;;-0.07;100.00;99231.48;1774358;80;21512;-68
2020/12/13 11:32:38;;;;;;;26.25;13.70;;;;;;;-0.08;100.00;99235.25;1774372;80;22326;-70
2020/12/13 11:35:06;;;;;;;27.67;13.80;;;;;;;-0.08;100.00;99240.11;1774216;80;21628;-71